Time;durP1;ratioP1;P1;durP2;ratioP2;P2;SDS_P1;SDS_P2;PMS_P1;PMS_P2;Temp;Humidity;BMP_temperature;BMP_pressure;BME280_temperature;BME280_humidity;BME280_pressure;Samples;Min_cycle;Max_cycle;Signal;HPM_P1;HPM_P2
2021/05/31 00:01:56;;;;;;;9.65;7.10;;;14.20;69.50;;;;;;5014520;28;20092;-77
2021/05/31 00:04:22;;;;;;;9.27;7.07;;;14.10;69.70;;;;;;5013351;28;20060;-79
2021/05/31 00:07:06;;;;;;;9.13;7.40;;;14.10;69.80;;;;;;5012198;28;20022;-76
2021/05/31 00:09:34;;;;;;;9.65;8.10;;;14.10;70.00;;;;;;5012424;28;20065;-76
2021/05/31 00:12:00;;;;;;;8.60;6.40;;;14.20;70.00;;;;;;5014482;28;20134;-77
2021/05/31 00:14:26;;;;;;;9.23;6.65;;;14.20;70.00;;;;;;4996104;28;20080;-80
2021/05/31 00:16:52;;;;;;;9.00;7.07;;;14.10;70.00;;;;;;5014028;28;20084;-77
2021/05/31 00:19:21;;;;;;;10.52;7.85;;;14.10;70.10;;;;;;5014040;28;20143;-76
2021/05/31 00:21:48;;;;;;;13.15;8.35;;;14.20;70.30;;;;;;5012398;28;20090;-77
2021/05/31 00:24:13;;;;;;;9.05;6.82;;;14.20;70.30;;;;;;5013204;28;20034;-76
2021/05/31 00:26:39;;;;;;;8.32;6.30;;;14.10;70.10;;;;;;5012402;28;20044;-77
2021/05/31 00:29:05;;;;;;;8.95;6.30;;;14.10;70.20;;;;;;5013126;28;20044;-77
2021/05/31 00:31:31;;;;;;;8.40;6.32;;;14.00;70.50;;;;;;4995537;28;20069;-77
2021/05/31 00:33:57;;;;;;;7.63;6.82;;;14.00;70.70;;;;;;5013081;28;20030;-77
2021/05/31 00:36:22;;;;;;;7.35;5.85;;;14.00;70.90;;;;;;4996255;28;20025;-76
2021/05/31 00:38:48;;;;;;;7.47;5.93;;;13.90;70.90;;;;;;5013338;28;20030;-77
2021/05/31 00:41:14;;;;;;;10.05;8.45;;;13.90;71.00;;;;;;4996653;28;20038;-76
2021/05/31 00:43:41;;;;;;;10.70;8.05;;;14.00;71.20;;;;;;5012135;28;20045;-76
2021/05/31 00:46:08;;;;;;;9.48;8.48;;;14.00;71.00;;;;;;5012459;28;20032;-78
2021/05/31 00:48:36;;;;;;;10.45;9.32;;;14.00;71.00;;;;;;5012277;28;20042;-76
2021/05/31 00:51:04;;;;;;;10.05;7.47;;;14.10;71.20;;;;;;4996275;28;20485;-76
2021/05/31 00:53:30;;;;;;;10.75;7.47;;;14.00;70.90;;;;;;5011674;28;20110;-80
2021/05/31 00:55:57;;;;;;;10.85;8.07;;;14.00;70.90;;;;;;5012152;28;20112;-77
2021/05/31 00:58:27;;;;;;;9.27;7.10;;;13.90;71.00;;;;;;5011933;28;20087;-76
2021/05/31 01:00:54;;;;;;;7.53;6.43;;;13.90;71.50;;;;;;5011471;28;20569;-77
2021/05/31 01:03:20;;;;;;;10.30;8.38;;;13.90;71.80;;;;;;5012107;28;20414;-76
2021/05/31 01:05:47;;;;;;;11.15;9.25;;;13.80;71.60;;;;;;5010732;28;20030;-77
2021/05/31 01:08:17;;;;;;;17.95;12.82;;;13.80;71.70;;;;;;4995897;28;20045;-77
2021/05/31 01:11:13;;;;;;;17.20;12.93;;;13.80;71.80;;;;;;5011328;28;20121;-77
2021/05/31 01:13:45;;;;;;;17.83;12.05;;;13.90;71.80;;;;;;5012372;28;20030;-78
2021/05/31 01:16:53;;;;;;;15.68;10.23;;;13.90;71.80;;;;;;5013409;28;20026;-77
2021/05/31 01:19:47;;;;;;;10.60;9.32;;;13.90;71.80;;;;;;5011229;28;20081;-77
2021/05/31 01:22:12;;;;;;;;;;;13.80;71.70;;;;;;5012440;28;20053;-77
2021/05/31 01:24:50;;;;;;;9.23;7.72;;;13.70;71.80;;;;;;5015738;28;19905;-77
2021/05/31 01:27:22;;;;;;;9.65;8.05;;;13.60;72.00;;;;;;5021431;28;20030;-77
2021/05/31 01:30:03;;;;;;;13.43;9.70;;;13.50;72.50;;;;;;5029363;28;20033;-78
2021/05/31 01:32:33;;;;;;;11.13;8.30;;;13.40;73.10;;;;;;5028883;28;20089;-78
2021/05/31 01:35:03;;;;;;;8.88;7.47;;;13.30;72.70;;;;;;5029957;28;20025;-77
2021/05/31 01:37:29;;;;;;;13.38;6.72;;;13.20;72.90;;;;;;5030793;28;20026;-78
2021/05/31 01:39:59;;;;;;;10.43;7.28;;;13.20;73.20;;;;;;5013864;28;20026;-77
2021/05/31 01:42:26;;;;;;;8.73;7.15;;;13.10;73.40;;;;;;5031190;28;20049;-77
2021/05/31 01:44:52;;;;;;;8.02;6.95;;;13.10;73.50;;;;;;5030438;28;20026;-79
2021/05/31 01:47:18;;;;;;;10.27;7.00;;;13.00;73.70;;;;;;5027747;28;20045;-77
2021/05/31 01:49:45;;;;;;;9.33;7.40;;;12.90;73.90;;;;;;5013757;28;20026;-77
2021/05/31 01:52:12;;;;;;;10.95;8.50;;;12.90;74.10;;;;;;4981260;28;20057;-77
2021/05/31 01:54:38;;;;;;;8.97;7.87;;;12.90;74.30;;;;;;5013598;28;20466;-83
2021/05/31 01:57:05;;;;;;;11.50;8.35;;;12.90;74.20;;;;;;4997356;28;20073;-77
2021/05/31 01:59:33;;;;;;;9.90;7.70;;;12.90;74.30;;;;;;5015122;28;20077;-77
2021/05/31 02:01:59;;;;;;;10.50;8.40;;;12.90;74.40;;;;;;5013220;28;20104;-77
2021/05/31 02:04:25;;;;;;;11.30;6.88;;;12.80;74.40;;;;;;5013754;28;20088;-78
2021/05/31 02:06:52;;;;;;;9.75;8.15;;;12.80;74.50;;;;;;5012661;28;20022;-78
2021/05/31 02:09:18;;;;;;;9.40;8.05;;;12.80;74.70;;;;;;4980850;28;20113;-77
2021/05/31 02:12:06;;;;;;;11.30;8.53;;;12.80;74.80;;;;;;4994208;28;20030;-77
2021/05/31 02:14:59;;;;;;;7.50;6.70;;;12.80;74.70;;;;;;4999174;28;20120;-78
2021/05/31 02:18:10;;;;;;;11.15;7.68;;;12.80;74.80;;;;;;5013038;28;20034;-77
2021/05/31 02:20:36;;;;;;;7.57;6.83;;;12.70;74.80;;;;;;4981860;28;20133;-77
2021/05/31 02:23:05;;;;;;;9.03;7.40;;;12.70;75.00;;;;;;5012542;28;20026;-78
2021/05/31 02:25:31;;;;;;;9.03;7.63;;;12.60;75.10;;;;;;5011506;28;20022;-77
2021/05/31 02:27:58;;;;;;;9.23;6.93;;;12.50;75.20;;;;;;5012565;28;20034;-78
2021/05/31 02:30:25;;;;;;;11.23;8.20;;;12.50;75.40;;;;;;5011713;28;20057;-77
2021/05/31 02:32:57;;;;;;;8.50;6.60;;;12.50;75.60;;;;;;4990734;28;20129;-78
2021/05/31 02:35:25;;;;;;;7.27;6.33;;;12.50;75.70;;;;;;4992564;28;20475;-78
2021/05/31 02:37:51;;;;;;;7.10;6.40;;;12.40;75.70;;;;;;4992461;28;20085;-77
2021/05/31 02:40:18;;;;;;;9.93;7.13;;;12.40;75.90;;;;;;4995149;28;20036;-78
2021/05/31 02:42:47;;;;;;;11.93;7.37;;;12.40;76.20;;;;;;4991037;28;20035;-81
2021/05/31 02:45:13;;;;;;;9.40;7.87;;;12.40;76.20;;;;;;4993888;28;20537;-77
2021/05/31 02:47:39;;;;;;;11.20;7.47;;;12.50;76.10;;;;;;5005184;28;20026;-78
2021/05/31 02:50:06;;;;;;;10.53;8.63;;;12.60;76.00;;;;;;5000593;28;20094;-78
2021/05/31 02:52:32;;;;;;;15.13;12.00;;;12.70;75.70;;;;;;5001722;28;20022;-77
2021/05/31 02:54:58;;;;;;;14.80;10.93;;;12.60;75.70;;;;;;5001628;28;20030;-78
2021/05/31 02:57:23;;;;;;;23.20;16.23;;;12.60;75.70;;;;;;5000027;28;20475;-78
2021/05/31 02:59:52;;;;;;;17.13;12.47;;;12.50;75.90;;;;;;5001169;28;20057;-80
2021/05/31 03:02:18;;;;;;;21.40;14.80;;;12.50;75.90;;;;;;4984714;28;20023;-78
2021/05/31 03:04:43;;;;;;;14.13;10.60;;;12.50;76.00;;;;;;4999988;28;20033;-78
2021/05/31 03:07:09;;;;;;;24.50;17.10;;;12.40;76.10;;;;;;5000815;28;20032;-77
2021/05/31 03:09:34;;;;;;;26.27;19.17;;;12.40;76.20;;;;;;4982737;28;20054;-77
2021/05/31 03:12:00;;;;;;;22.97;17.13;;;12.40;76.30;;;;;;5013840;28;20030;-78
2021/05/31 03:14:26;;;;;;;29.37;19.47;;;12.50;76.40;;;;;;4982668;28;20065;-78
2021/05/31 03:16:52;;;;;;;22.33;15.57;;;12.40;76.50;;;;;;5007314;28;20081;-77
2021/05/31 03:19:17;;;;;;;22.60;15.33;;;12.40;76.40;;;;;;4986422;28;20498;-77
2021/05/31 03:21:43;;;;;;;28.57;20.53;;;12.40;76.40;;;;;;4984800;28;20076;-76
2021/05/31 03:24:09;;;;;;;18.27;12.63;;;12.40;76.60;;;;;;4999833;28;20695;-78
2021/05/31 03:26:34;;;;;;;19.03;13.60;;;12.50;76.50;;;;;;4987081;28;20036;-78
2021/05/31 03:29:00;;;;;;;19.23;12.70;;;12.40;76.40;;;;;;5000964;28;20030;-76
2021/05/31 03:31:25;;;;;;;30.53;21.83;;;12.30;76.60;;;;;;4989421;28;20058;-78
2021/05/31 03:33:51;;;;;;;26.67;18.63;;;12.40;77.00;;;;;;5010619;28;20026;-82
2021/05/31 03:36:17;;;;;;;21.93;16.40;;;12.50;77.20;;;;;;4992468;28;20110;-77
2021/05/31 03:38:42;;;;;;;16.77;12.77;;;12.60;76.40;;;;;;5010247;28;20038;-78
2021/05/31 03:41:08;;;;;;;14.37;12.17;;;12.60;76.40;;;;;;4993564;28;20102;-78
2021/05/31 03:43:34;;;;;;;14.97;10.30;;;12.50;76.30;;;;;;4993194;28;20030;-78
2021/05/31 03:45:59;;;;;;;15.30;10.93;;;12.50;76.30;;;;;;5000234;28;20106;-79
2021/05/31 03:48:25;;;;;;;14.40;12.10;;;12.50;76.50;;;;;;4996089;28;20045;-79
2021/05/31 03:51:07;;;;;;;16.40;12.10;;;12.40;76.60;;;;;;5009130;28;20331;-78
2021/05/31 03:53:34;;;;;;;12.27;9.27;;;12.50;76.70;;;;;;5013494;28;20080;-77
2021/05/31 03:56:00;;;;;;;12.57;9.37;;;12.60;76.30;;;;;;5011741;28;20037;-79
2021/05/31 03:58:26;;;;;;;15.43;11.57;;;12.60;76.20;;;;;;4995441;28;20061;-77
2021/05/31 04:00:52;;;;;;;15.93;10.50;;;12.60;76.30;;;;;;4995793;28;20091;-78
2021/05/31 04:03:17;;;;;;;13.80;9.40;;;12.50;76.40;;;;;;5011631;28;20073;-77
2021/05/31 04:05:56;;;;;;;12.70;10.37;;;12.40;76.60;;;;;;5012235;28;20071;-78
2021/05/31 04:13:52;;;;;;;18.37;10.30;;;12.60;76.50;;;;;;5011503;28;20081;-77
2021/05/31 04:16:17;;;;;;;13.00;9.90;;;12.90;76.10;;;;;;4990851;28;20054;-77
2021/05/31 04:18:43;;;;;;;13.53;9.93;;;13.40;75.10;;;;;;4998723;28;20066;-77
2021/05/31 04:21:09;;;;;;;12.90;9.10;;;14.10;73.50;;;;;;4993519;28;20057;-78
2021/05/31 04:23:34;;;;;;;12.38;8.85;;;15.00;71.30;;;;;;5011411;28;20026;-77
2021/05/31 04:26:00;;;;;;;11.32;8.40;;;16.00;68.40;;;;;;5009449;28;20030;-81
2021/05/31 04:28:25;;;;;;;12.65;9.93;;;16.60;66.30;;;;;;4993111;28;20030;-78
2021/05/31 04:30:51;;;;;;;10.68;8.00;;;17.50;64.50;;;;;;5009239;28;20125;-78
2021/05/31 04:33:17;;;;;;;9.90;7.75;;;18.10;62.20;;;;;;4993034;28;20054;-78
2021/05/31 04:35:42;;;;;;;10.95;7.82;;;18.50;60.70;;;;;;5014273;28;20036;-79
2021/05/31 04:38:08;;;;;;;10.93;8.23;;;18.80;60.10;;;;;;5013745;28;20040;-77
2021/05/31 04:40:34;;;;;;;9.68;7.72;;;19.00;58.80;;;;;;5014409;28;20029;-78
2021/05/31 04:42:59;;;;;;;9.57;7.18;;;19.20;58.20;;;;;;5014366;28;20112;-79
2021/05/31 04:45:25;;;;;;;8.15;7.25;;;19.80;56.70;;;;;;5015709;28;20466;-78
2021/05/31 04:47:51;;;;;;;10.48;7.50;;;20.00;56.10;;;;;;5013894;28;20053;-78
2021/05/31 04:50:17;;;;;;;10.90;7.47;;;20.30;55.40;;;;;;4996670;28;20509;-77
2021/05/31 04:52:43;;;;;;;10.68;7.35;;;20.70;53.90;;;;;;5013560;28;20026;-77
2021/05/31 04:55:15;;;;;;;8.20;7.30;;;21.10;52.80;;;;;;5012300;28;20030;-76
2021/05/31 04:57:40;;;;;;;7.70;6.45;;;21.70;51.80;;;;;;4981774;28;20057;-78
2021/05/31 05:00:07;;;;;;;8.45;6.95;;;22.00;50.50;;;;;;4979702;28;20041;-79
2021/05/31 05:02:33;;;;;;;11.57;7.30;;;21.90;50.80;;;;;;5012910;28;20073;-76
2021/05/31 05:04:59;;;;;;;10.93;7.18;;;21.80;50.80;;;;;;4996849;28;20072;-77
2021/05/31 05:07:24;;;;;;;10.20;7.28;;;22.20;50.50;;;;;;5012756;28;20048;-76
2021/05/31 05:09:50;;;;;;;7.68;6.82;;;22.90;48.90;;;;;;5012311;28;20022;-78
2021/05/31 05:12:16;;;;;;;9.68;7.32;;;23.40;47.30;;;;;;5012566;28;20493;-77
2021/05/31 05:14:43;;;;;;;9.45;6.88;;;23.70;46.30;;;;;;4995827;28;20458;-76
2021/05/31 05:17:09;;;;;;;9.27;7.07;;;23.90;46.30;;;;;;5012341;28;20119;-80
2021/05/31 05:19:34;;;;;;;10.32;7.53;;;24.30;45.40;;;;;;5014171;28;20022;-79
2021/05/31 05:22:00;;;;;;;8.18;6.93;;;24.70;44.80;;;;;;5000346;28;20037;-80
2021/05/31 05:24:27;;;;;;;9.85;7.22;;;25.20;44.40;;;;;;5014527;28;20161;-80
2021/05/31 05:26:53;;;;;;;7.90;6.25;;;25.00;43.30;;;;;;4993514;28;20045;-79
2021/05/31 05:29:20;;;;;;;10.50;7.70;;;25.30;42.80;;;;;;4975862;28;20039;-81
2021/05/31 05:31:47;;;;;;;11.40;7.93;;;25.60;42.40;;;;;;4993454;28;20491;-80
2021/05/31 05:34:13;;;;;;;11.00;7.20;;;25.50;42.80;;;;;;5000052;28;20037;-81
2021/05/31 05:36:50;;;;;;;9.32;7.00;;;25.20;42.60;;;;;;5011793;28;20026;-80
2021/05/31 05:39:47;;;;;;;11.57;6.95;;;25.30;42.10;;;;;;4998278;28;20425;-81
2021/05/31 05:49:45;;;;;;;9.02;7.30;;;25.10;42.30;;;;;;5013107;28;20038;-79
2021/05/31 05:52:11;;;;;;;11.60;7.05;;;25.00;42.50;;;;;;5011173;28;20026;-82
2021/05/31 05:54:37;;;;;;;8.30;7.22;;;24.50;43.10;;;;;;5012001;28;20022;-78
2021/05/31 05:57:03;;;;;;;9.40;7.10;;;24.40;43.30;;;;;;5012135;28;20036;-79
2021/05/31 05:59:29;;;;;;;9.75;7.45;;;24.10;43.70;;;;;;5011683;28;20038;-79
2021/05/31 06:01:55;;;;;;;12.65;7.35;;;23.90;43.90;;;;;;5012506;28;20022;-79
2021/05/31 06:04:20;;;;;;;10.88;7.63;;;23.60;44.50;;;;;;5011040;28;20382;-78
2021/05/31 06:06:47;;;;;;;13.57;7.70;;;23.60;44.90;;;;;;4979980;28;20042;-77
2021/05/31 06:09:15;;;;;;;9.68;7.60;;;23.90;44.20;;;;;;5011399;28;20037;-82
2021/05/31 06:11:41;;;;;;;12.60;7.78;;;23.60;45.10;;;;;;5012398;28;20022;-77
2021/05/31 06:14:09;;;;;;;11.73;7.95;;;23.50;45.00;;;;;;4994799;28;20076;-78
2021/05/31 06:16:35;;;;;;;15.80;7.22;;;23.60;45.20;;;;;;4994092;28;20524;-76
2021/05/31 06:19:01;;;;;;;9.00;7.20;;;24.20;44.50;;;;;;5010650;28;20496;-76
2021/05/31 06:21:26;;;;;;;9.57;7.50;;;24.50;43.90;;;;;;4993511;28;20116;-77
2021/05/31 06:23:54;;;;;;;10.13;7.13;;;25.30;43.60;;;;;;5011064;28;20087;-77
2021/05/31 06:26:20;;;;;;;8.60;6.32;;;26.00;41.40;;;;;;4995184;28;20451;-76
2021/05/31 06:28:46;;;;;;;10.93;8.40;;;25.70;41.20;;;;;;4996032;28;20141;-76
2021/05/31 06:31:11;;;;;;;8.40;7.32;;;25.30;41.80;;;;;;5013612;28;20103;-78
2021/05/31 06:33:37;;;;;;;8.50;7.07;;;25.20;43.00;;;;;;5010937;28;20160;-77
2021/05/31 06:36:06;;;;;;;9.55;7.00;;;25.70;41.70;;;;;;4991035;28;20507;-77
2021/05/31 06:38:33;;;;;;;9.70;7.47;;;25.40;41.80;;;;;;4987039;28;20030;-77
2021/05/31 06:40:59;;;;;;;11.57;7.13;;;25.50;41.60;;;;;;4988817;28;20035;-78
2021/05/31 06:43:25;;;;;;;11.50;7.53;;;25.30;41.60;;;;;;5002469;28;20030;-77
2021/05/31 06:45:51;;;;;;;11.07;7.53;;;25.20;42.20;;;;;;5011042;28;20025;-78
2021/05/31 06:48:16;;;;;;;10.32;7.07;;;25.20;42.20;;;;;;4972433;28;20097;-80
2021/05/31 06:50:44;;;;;;;12.95;8.70;;;24.80;42.30;;;;;;5004184;28;20111;-77
2021/05/31 06:53:10;;;;;;;13.13;8.05;;;24.60;42.50;;;;;;5008134;28;20720;-80
2021/05/31 06:55:36;;;;;;;11.52;6.32;;;24.60;43.30;;;;;;4981543;28;20058;-78
2021/05/31 06:58:03;;;;;;;10.30;7.07;;;25.00;42.80;;;;;;5007178;28;20477;-77
2021/05/31 07:00:29;;;;;;;11.60;6.93;;;25.70;42.30;;;;;;5009956;28;20057;-79
2021/05/31 07:02:55;;;;;;;7.93;6.32;;;26.00;40.60;;;;;;5013130;28;20484;-79
2021/05/31 07:05:21;;;;;;;8.52;6.47;;;25.90;40.50;;;;;;5010247;28;20034;-80
2021/05/31 07:07:48;;;;;;;11.60;6.40;;;25.80;41.00;;;;;;5010993;28;20058;-78
2021/05/31 07:10:15;;;;;;;7.38;5.82;;;25.90;40.90;;;;;;5012270;28;20022;-79
2021/05/31 07:12:42;;;;;;;8.57;6.15;;;26.40;40.80;;;;;;5010064;28;20025;-79
2021/05/31 07:15:11;;;;;;;9.65;6.88;;;26.90;40.70;;;;;;5009111;28;20034;-78
2021/05/31 07:17:37;;;;;;;6.57;5.03;;;27.70;40.00;;;;;;5009844;28;20030;-79
2021/05/31 07:20:06;;;;;;;9.52;5.30;;;28.10;37.20;;;;;;5010662;28;20091;-79
2021/05/31 07:22:32;;;;;;;8.10;5.90;;;28.00;37.10;;;;;;5010124;28;20028;-79
2021/05/31 07:24:58;;;;;;;7.53;4.97;;;27.70;37.70;;;;;;5010985;28;20363;-79
2021/05/31 07:27:24;;;;;;;7.93;5.20;;;28.00;37.50;;;;;;5007326;28;20164;-83
2021/05/31 07:29:50;;;;;;;8.27;5.30;;;28.20;38.70;;;;;;5009353;28;20375;-80
2021/05/31 07:32:16;;;;;;;6.45;4.53;;;28.90;36.80;;;;;;5008512;28;20049;-80
2021/05/31 07:34:43;;;;;;;8.18;4.78;;;28.70;36.60;;;;;;5010413;28;20026;-79
2021/05/31 07:37:09;;;;;;;5.90;3.88;;;29.00;35.70;;;;;;4990132;28;20030;-79
2021/05/31 07:39:35;;;;;;;7.03;4.55;;;29.50;35.20;;;;;;5009588;28;20034;-78
2021/05/31 07:42:02;;;;;;;5.82;4.85;;;29.40;34.80;;;;;;5010103;28;20398;-80
2021/05/31 07:44:27;;;;;;;6.28;4.93;;;29.50;34.90;;;;;;4986937;28;20104;-80
2021/05/31 07:46:53;;;;;;;7.97;3.97;;;29.80;34.60;;;;;;5011385;28;20057;-81
2021/05/31 07:49:19;;;;;;;6.35;4.30;;;30.10;34.10;;;;;;4978555;28;20041;-79
2021/05/31 07:51:46;;;;;;;6.95;5.85;;;30.10;33.50;;;;;;5009418;28;20030;-80
2021/05/31 07:54:12;;;;;;;7.63;5.93;;;30.30;33.90;;;;;;5004508;28;20030;-80
2021/05/31 07:56:39;;;;;;;6.68;5.30;;;30.70;33.80;;;;;;4994277;28;20562;-80
2021/05/31 07:59:05;;;;;;;5.88;4.40;;;31.10;33.60;;;;;;5010836;28;20045;-79
2021/05/31 08:01:34;;;;;;;4.88;3.88;;;31.50;32.50;;;;;;5011375;28;20486;-79
2021/05/31 08:04:00;;;;;;;5.97;3.95;;;31.70;32.60;;;;;;4981564;28;20030;-80
2021/05/31 08:06:26;;;;;;;6.30;3.33;;;31.20;32.00;;;;;;4992126;28;20522;-83
2021/05/31 08:08:51;;;;;;;5.07;4.43;;;30.70;32.10;;;;;;4992684;28;20121;-79
2021/05/31 08:11:17;;;;;;;4.35;3.30;;;30.60;32.50;;;;;;4996824;28;20106;-79
2021/05/31 08:13:43;;;;;;;6.18;3.92;;;30.50;32.50;;;;;;4986638;28;20133;-79
2021/05/31 08:16:09;;;;;;;7.25;4.47;;;30.10;33.20;;;;;;4986298;28;20030;-79
2021/05/31 08:18:35;;;;;;;5.57;4.20;;;30.00;34.00;;;;;;5010308;28;20041;-78
2021/05/31 08:21:02;;;;;;;7.30;4.03;;;30.50;33.60;;;;;;5010727;28;20030;-80
2021/05/31 08:23:28;;;;;;;6.47;3.20;;;31.20;34.00;;;;;;5002941;28;20033;-82
2021/05/31 08:25:54;;;;;;;6.40;3.45;;;31.60;32.90;;;;;;4998417;28;20014;-78
2021/05/31 08:28:20;;;;;;;7.90;3.30;;;31.40;32.10;;;;;;4993367;28;20035;-78
2021/05/31 08:30:46;;;;;;;5.80;3.40;;;31.80;32.00;;;;;;4991954;28;20026;-79
2021/05/31 08:33:12;;;;;;;7.45;2.70;;;32.10;32.50;;;;;;4996662;28;20391;-79
2021/05/31 08:35:40;;;;;;;4.32;2.15;;;32.50;31.20;;;;;;5014292;28;20049;-77
2021/05/31 08:38:06;;;;;;;4.60;2.25;;;31.60;29.90;;;;;;5014664;28;20104;-77
2021/05/31 08:40:32;;;;;;;7.45;2.53;;;30.50;31.60;;;;;;5014654;28;20041;-80
2021/05/31 08:42:58;;;;;;;6.70;3.08;;;30.40;32.40;;;;;;5014102;28;20589;-79
2021/05/31 08:45:28;;;;;;;5.05;2.00;;;30.90;32.80;;;;;;5014192;28;20034;-80
2021/05/31 08:47:56;;;;;;;3.80;1.85;;;31.40;30.60;;;;;;5014709;28;20026;-78
2021/05/31 08:50:24;;;;;;;5.70;2.47;;;31.60;31.20;;;;;;4997567;28;20076;-77
2021/05/31 08:52:52;;;;;;;3.60;2.35;;;31.70;29.50;;;;;;5010389;28;20018;-76
2021/05/31 08:55:20;;;;;;;3.42;2.47;;;31.80;30.40;;;;;;5009142;28;20033;-79
2021/05/31 08:57:47;;;;;;;5.43;3.03;;;31.90;31.00;;;;;;5008724;28;20390;-81
2021/05/31 09:00:16;;;;;;;4.75;1.92;;;32.10;30.00;;;;;;5013310;28;20072;-80
2021/05/31 09:02:43;;;;;;;3.95;2.20;;;31.20;29.70;;;;;;5003700;28;20113;-80
2021/05/31 09:05:09;;;;;;;3.88;1.90;;;31.00;30.80;;;;;;5003915;28;20034;-79
2021/05/31 09:07:36;;;;;;;9.73;2.97;;;31.50;31.00;;;;;;4997972;28;20037;-82
2021/05/31 09:10:05;;;;;;;3.95;2.55;;;32.00;31.10;;;;;;5014288;28;20451;-80
2021/05/31 09:12:35;;;;;;;3.50;2.22;;;31.90;31.20;;;;;;4991237;28;20467;-81
2021/05/31 09:15:07;;;;;;;6.85;1.95;;;32.20;30.90;;;;;;4992710;28;20034;-79
2021/05/31 09:17:34;;;;;;;4.75;1.58;;;32.70;30.70;;;;;;5013922;28;20045;-83
2021/05/31 09:20:01;;;;;;;4.38;2.42;;;33.00;30.10;;;;;;5007222;28;20045;-81
2021/05/31 09:22:28;;;;;;;4.20;2.17;;;33.20;30.40;;;;;;5004928;28;20394;-80
2021/05/31 09:25:04;;;;;;;4.50;2.30;;;32.40;29.90;;;;;;4986338;28;20029;-79
2021/05/31 09:27:31;;;;;;;3.42;2.08;;;32.40;30.20;;;;;;4996426;28;20097;-81
2021/05/31 09:29:59;;;;;;;4.53;2.15;;;32.70;30.20;;;;;;4996317;28;20088;-80
2021/05/31 09:32:26;;;;;;;5.13;2.13;;;32.70;30.00;;;;;;5013085;28;20049;-80
2021/05/31 09:35:04;;;;;;;4.57;2.60;;;33.00;30.90;;;;;;5014172;28;20026;-79
2021/05/31 09:37:30;;;;;;;4.03;2.35;;;33.40;30.30;;;;;;5014367;28;20022;-82
2021/05/31 09:40:04;;;;;;;4.43;2.55;;;32.90;29.00;;;;;;5013264;28;20188;-80
2021/05/31 09:42:31;;;;;;;4.75;2.90;;;31.50;29.90;;;;;;5012322;28;20049;-80
2021/05/31 09:45:07;;;;;;;6.15;2.67;;;30.50;30.90;;;;;;4993901;28;20094;-78
2021/05/31 09:47:34;;;;;;;6.13;2.72;;;29.10;32.40;;;;;;4996856;28;20100;-79
2021/05/31 09:50:01;;;;;;;2.17;1.25;;;28.20;33.60;;;;;;5009561;28;20029;-79
2021/05/31 09:52:27;;;;;;;1.58;1.00;;;27.40;31.80;;;;;;5013332;28;20033;-78
2021/05/31 09:54:53;;;;;;;2.00;1.13;;;27.20;32.00;;;;;;5012460;28;20038;-79
2021/05/31 09:57:26;;;;;;;3.90;1.98;;;26.90;32.00;;;;;;4996536;28;20025;-78
2021/05/31 09:59:58;;;;;;;3.85;1.92;;;27.00;32.30;;;;;;5013149;28;20041;-80
2021/05/31 10:02:36;;;;;;;;;;;27.00;33.20;;;;;;4997728;28;20111;-80
2021/05/31 10:09:59;;;;;;;3.75;2.47;;;26.70;34.40;;;;;;5012903;28;20759;-79
2021/05/31 10:12:26;;;;;;;6.57;2.28;;;26.20;35.00;;;;;;5014403;28;20377;-79
2021/05/31 10:14:53;;;;;;;4.88;1.90;;;26.40;36.10;;;;;;5009710;28;20466;-77
2021/05/31 10:17:23;;;;;;;5.97;3.30;;;27.30;36.50;;;;;;5007295;28;20088;-76
2021/05/31 10:19:49;;;;;;;3.97;2.47;;;28.20;34.50;;;;;;4995894;28;20032;-77
2021/05/31 10:22:16;;;;;;;4.60;2.90;;;28.10;34.50;;;;;;5012019;28;20109;-78
2021/05/31 10:24:42;;;;;;;6.00;2.88;;;28.00;34.50;;;;;;5005648;28;20056;-81
2021/05/31 10:27:13;;;;;;;4.32;2.30;;;28.20;35.10;;;;;;5012857;28;20036;-77
2021/05/31 10:29:43;;;;;;;2.60;1.95;;;28.60;34.30;;;;;;5012080;28;20032;-77
2021/05/31 10:32:11;;;;;;;2.95;2.00;;;29.10;34.80;;;;;;5006345;28;20046;-79
2021/05/31 10:34:50;;;;;;;3.25;1.50;;;29.90;32.40;;;;;;5012749;28;20037;-78
2021/05/31 10:37:27;;;;;;;3.33;1.80;;;29.30;30.60;;;;;;5005237;28;20030;-78
2021/05/31 10:40:10;;;;;;;4.10;2.10;;;28.60;31.60;;;;;;4975284;28;20061;-77
2021/05/31 10:42:43;;;;;;;;;;;27.80;33.60;;;;;;5006843;28;20474;-78
2021/05/31 10:45:17;;;;;;;;;;;27.60;33.50;;;;;;5010692;28;20008;-78
2021/05/31 10:47:58;;;;;;;3.80;2.25;;;27.20;33.60;;;;;;5011592;28;19909;-80
2021/05/31 10:50:38;;;;;;;3.10;2.60;;;27.10;33.20;;;;;;5011229;28;20536;-78
2021/05/31 10:53:18;;;;;;;4.13;1.92;;;27.50;34.00;;;;;;5010859;28;20697;-77
2021/05/31 10:55:49;;;;;;;2.63;1.73;;;27.60;33.10;;;;;;5011692;28;20037;-78
2021/05/31 10:58:17;;;;;;;4.15;1.70;;;27.60;33.30;;;;;;5011587;28;20042;-78
2021/05/31 11:00:55;;;;;;;4.38;2.15;;;27.50;34.00;;;;;;5011016;28;20049;-78
2021/05/31 11:03:22;;;;;;;5.47;2.38;;;27.30;34.80;;;;;;5011658;28;20458;-77
2021/05/31 11:05:48;;;;;;;6.05;2.30;;;27.60;34.70;;;;;;5011398;28;20046;-80
2021/05/31 11:08:27;;;;;;;3.65;2.08;;;28.30;34.10;;;;;;5011861;28;20057;-78
2021/05/31 11:10:59;;;;;;;3.13;1.77;;;27.90;33.90;;;;;;5012441;28;20022;-77
2021/05/31 11:13:25;;;;;;;4.63;2.23;;;28.40;34.50;;;;;;5011436;28;20022;-78
2021/05/31 11:16:06;;;;;;;4.25;1.73;;;28.80;32.70;;;;;;4994913;28;20022;-79
2021/05/31 11:18:39;;;;;;;2.55;1.30;;;28.10;31.60;;;;;;5011782;28;20026;-77
2021/05/31 11:21:06;;;;;;;3.42;1.75;;;28.30;32.80;;;;;;5011235;28;20462;-77
2021/05/31 11:23:31;;;;;;;2.65;1.50;;;28.50;32.10;;;;;;5011329;28;20030;-76
2021/05/31 11:25:58;;;;;;;4.95;2.80;;;28.70;33.30;;;;;;4993700;28;20042;-77
2021/05/31 11:28:24;;;;;;;3.55;3.00;;;28.50;34.10;;;;;;4995625;28;20034;-77
2021/05/31 11:30:50;;;;;;;6.45;3.20;;;28.00;33.80;;;;;;4994695;28;20035;-80
2021/05/31 11:33:17;;;;;;;4.47;2.55;;;27.70;34.10;;;;;;4994813;28;20140;-77
2021/05/31 11:35:46;;;;;;;6.22;3.72;;;27.10;34.10;;;;;;5012983;28;20092;-78
2021/05/31 11:38:15;;;;;;;5.18;3.20;;;26.70;34.50;;;;;;5011451;28;20030;-76
2021/05/31 11:40:41;;;;;;;5.30;3.47;;;26.40;35.70;;;;;;5012522;28;20079;-77
2021/05/31 11:43:13;;;;;;;3.10;2.03;;;26.90;35.70;;;;;;5013176;28;20066;-77
2021/05/31 11:45:40;;;;;;;5.53;2.10;;;27.30;36.00;;;;;;5018188;28;20447;-77
2021/05/31 11:48:18;;;;;;;5.72;2.50;;;28.10;33.80;;;;;;5020234;28;20030;-76
2021/05/31 11:50:46;;;;;;;5.30;3.35;;;27.80;32.70;;;;;;5020652;28;20093;-77
2021/05/31 11:53:15;;;;;;;7.28;3.70;;;27.20;34.60;;;;;;5010265;28;20112;-77
2021/05/31 11:55:41;;;;;;;5.07;3.78;;;26.60;35.40;;;;;;5023824;28;20028;-80
2021/05/31 11:58:07;;;;;;;4.75;2.95;;;26.10;36.20;;;;;;5024222;28;20412;-77
2021/05/31 12:00:40;;;;;;;7.43;3.95;;;26.40;35.90;;;;;;5009263;28;20513;-77
2021/05/31 12:03:25;;;;;;;6.88;3.30;;;26.30;35.10;;;;;;5016909;28;20037;-77
2021/05/31 12:05:50;;;;;;;4.63;3.63;;;26.50;35.70;;;;;;5025800;28;20026;-78
2021/05/31 12:08:17;;;;;;;5.65;3.60;;;26.60;35.40;;;;;;5023051;28;20083;-77
2021/05/31 12:10:46;;;;;;;6.30;4.13;;;26.70;34.80;;;;;;5024578;28;20037;-78
2021/05/31 12:13:13;;;;;;;4.75;3.10;;;27.00;34.00;;;;;;5029694;28;20040;-76
2021/05/31 12:15:40;;;;;;;5.45;3.40;;;26.90;33.60;;;;;;5014447;28;20038;-76
2021/05/31 12:18:13;;;;;;;6.32;3.55;;;26.60;34.00;;;;;;5008902;28;20034;-77
2021/05/31 12:20:39;;;;;;;;;;;26.20;35.50;;;;;;5020106;28;20113;-77
2021/05/31 12:23:15;;;;;;;4.88;2.83;;;26.50;35.40;;;;;;5017219;28;19905;-77
2021/05/31 12:25:40;;;;;;;4.07;3.00;;;26.70;34.90;;;;;;5016430;28;20037;-76
2021/05/31 12:28:06;;;;;;;5.00;3.20;;;26.70;34.50;;;;;;4999511;28;20030;-77
2021/05/31 12:30:32;;;;;;;4.65;2.75;;;26.20;35.40;;;;;;5016107;28;20030;-80
2021/05/31 12:32:58;;;;;;;6.95;3.83;;;26.10;36.00;;;;;;4998745;28;20052;-82
2021/05/31 12:35:24;;;;;;;4.63;3.08;;;25.90;37.20;;;;;;5000162;28;20029;-76
2021/05/31 12:37:53;;;;;;;4.95;3.40;;;26.00;36.30;;;;;;5015568;28;20034;-77
2021/05/31 12:40:20;;;;;;;4.93;3.10;;;25.90;37.20;;;;;;5016811;28;20026;-78
2021/05/31 12:42:49;;;;;;;4.90;2.70;;;26.00;36.80;;;;;;5016530;28;20026;-77
2021/05/31 12:45:19;;;;;;;6.85;4.72;;;26.10;36.30;;;;;;5016104;28;20036;-77
2021/05/31 12:47:49;;;;;;;4.90;3.47;;;26.30;36.10;;;;;;5016490;28;20053;-78
2021/05/31 12:50:37;;;;;;;7.03;3.33;;;26.40;35.80;;;;;;5016003;28;20038;-78
2021/05/31 12:53:08;;;;;;;4.95;2.83;;;26.60;35.90;;;;;;4997088;28;20088;-77
2021/05/31 12:55:37;;;;;;;3.28;2.30;;;26.70;35.50;;;;;;5009841;28;20109;-78
2021/05/31 12:58:21;;;;;;;4.60;2.60;;;27.10;34.80;;;;;;4993702;28;20046;-78
2021/05/31 13:00:47;;;;;;;4.53;2.88;;;27.20;34.90;;;;;;5012492;28;20054;-79
2021/05/31 13:03:14;;;;;;;4.95;3.25;;;27.20;34.50;;;;;;5016148;28;20456;-78
2021/05/31 13:05:42;;;;;;;6.88;3.47;;;26.60;34.20;;;;;;5014164;28;20437;-79
2021/05/31 13:08:13;;;;;;;5.43;2.50;;;26.40;34.30;;;;;;5014816;28;20505;-78